Time,TemperatureF,DewpointF,PressureIn,WindDirection,WindDirectionDegrees,WindSpeedMPH,WindSpeedGustMPH,Humidity,HourlyPrecipIn,Conditions,Clouds,dailyrainin,SoftwareType,DateUTC
2012-10-17 00:00:00,25.8,16.6,0.00,WSW,252,16.6,-999.0,67,0.00,,,-99.99,,2012-10-17 08:00:00,
2012-10-17 00:05:00,26.0,16.6,0.00,WSW,250,9.6,-999.0,67,0.00,,,-99.99,,2012-10-17 08:05:00,
2012-10-17 00:10:00,26.0,16.5,0.00,West,262,16.6,-999.0,67,0.00,,,-99.99,,2012-10-17 08:10:00,
2012-10-17 00:15:00,25.7,16.4,0.00,West,268,15.9,-999.0,67,0.00,,,-99.99,,2012-10-17 08:15:00,
2012-10-17 00:20:00,25.6,16.4,0.00,WNW,285,8.8,-999.0,67,0.00,,,-99.99,,2012-10-17 08:20:00,
2012-10-17 00:25:00,25.3,16.6,0.00,NW,325,6.3,-999.0,69,0.00,,,-99.99,,2012-10-17 08:25:00,
2012-10-17 00:30:00,25.3,16.4,0.00,WNW,296,4.9,-999.0,68,0.00,,,-99.99,,2012-10-17 08:30:00,
2012-10-17 00:35:00,25.5,16.1,0.00,WNW,292,8.9,-999.0,67,0.00,,,-99.99,,2012-10-17 08:35:00,
2012-10-17 00:40:00,25.4,15.9,0.00,WSW,258,10.5,-999.0,66,0.00,,,-99.99,,2012-10-17 08:40:00,
2012-10-17 00:45:00,25.5,15.8,0.00,West,279,14.4,-999.0,66,0.00,,,-99.99,,2012-10-17 08:45:00,
2012-10-17 00:50:00,25.5,16.2,0.00,West,276,8.1,-999.0,67,0.00,,,-99.99,,2012-10-17 08:50:00,
2012-10-17 00:55:00,25.2,15.8,0.00,West,275,15.6,-999.0,66,0.00,,,-99.99,,2012-10-17 08:55:00,
2012-10-17 01:00:00,25.4,15.8,0.00,West,272,16.9,-999.0,66,0.00,,,-99.99,,2012-10-17 09:00:00,
2012-10-17 01:05:00,25.3,16.2,0.00,West,277,9.2,-999.0,68,0.00,,,-99.99,,2012-10-17 09:05:00,
2012-10-17 01:11:00,25.1,16.3,0.00,SW,226,3.5,-999.0,68,0.00,,,-99.99,,2012-10-17 09:11:00,
2012-10-17 01:16:00,25.0,16.3,0.00,WSW,255,7.3,-999.0,69,0.00,,,-99.99,,2012-10-17 09:16:00,
2012-10-17 01:21:00,25.0,16.4,0.00,NW,306,5.6,-999.0,69,0.00,,,-99.99,,2012-10-17 09:21:00,
2012-10-17 01:28:00,25.2,16.7,0.00,WNW,301,1.8,-999.0,69,0.00,,,-99.99,,2012-10-17 09:28:00,
2012-10-17 01:33:00,25.1,16.4,0.00,West,280,7.0,-999.0,68,0.00,,,-99.99,,2012-10-17 09:33:00,
2012-10-17 01:38:00,25.2,16.0,0.00,West,277,8.4,-999.0,67,0.00,,,-99.99,,2012-10-17 09:38:00,
2012-10-17 01:43:00,25.3,15.5,0.00,West,266,14.2,-999.0,65,0.00,,,-99.99,,2012-10-17 09:43:00,
2012-10-17 01:48:00,25.5,15.9,0.00,NW,324,8.8,-999.0,66,0.00,,,-99.99,,2012-10-17 09:48:00,
2012-10-17 01:53:00,25.0,15.7,0.00,NNW,335,3.1,-999.0,67,0.00,,,-99.99,,2012-10-17 09:53:00,
2012-10-17 01:58:00,25.3,15.3,0.00,WNW,292,12.5,-999.0,65,0.00,,,-99.99,,2012-10-17 09:58:00,
2012-10-17 02:03:00,25.2,14.9,0.00,WNW,291,6.8,-999.0,64,0.00,,,-99.99,,2012-10-17 10:03:00,
2012-10-17 02:08:00,25.2,15.1,0.00,WNW,284,12.2,-999.0,65,0.00,,,-99.99,,2012-10-17 10:08:00,
2012-10-17 02:13:00,25.2,15.0,0.00,WSW,254,21.2,-999.0,64,0.00,,,-99.99,,2012-10-17 10:13:00,
2012-10-17 02:18:00,25.1,14.6,0.00,West,269,17.1,-999.0,63,0.00,,,-99.99,,2012-10-17 10:18:00,
2012-10-17 02:23:00,25.2,14.7,0.00,NW,305,16.4,-999.0,64,0.00,,,-99.99,,2012-10-17 10:23:00,
2012-10-17 02:28:00,25.3,15.0,0.00,West,265,10.9,-999.0,64,0.00,,,-99.99,,2012-10-17 10:28:00,
2012-10-17 02:33:00,25.2,15.0,0.00,NW,324,10.6,-999.0,65,0.00,,,-99.99,,2012-10-17 10:33:00,
2012-10-17 02:38:00,25.4,14.8,0.00,West,260,8.1,-999.0,63,0.00,,,-99.99,,2012-10-17 10:38:00,
2012-10-17 02:43:00,25.2,14.3,0.00,West,264,22.1,-999.0,62,0.00,,,-99.99,,2012-10-17 10:43:00,
2012-10-17 02:48:00,25.2,14.7,0.00,West,277,14.3,-999.0,63,0.00,,,-99.99,,2012-10-17 10:48:00,
2012-10-17 02:53:00,25.3,14.1,0.00,WNW,295,15.0,-999.0,62,0.00,,,-99.99,,2012-10-17 10:53:00,
2012-10-17 02:58:00,25.5,14.8,0.00,WSW,257,9.5,-999.0,63,0.00,,,-99.99,,2012-10-17 10:58:00,
2012-10-17 03:03:00,25.1,14.5,0.00,WSW,258,11.5,-999.0,63,0.00,,,-99.99,,2012-10-17 11:03:00,
2012-10-17 03:08:00,25.2,14.6,0.00,West,259,5.3,-999.0,63,0.00,,,-99.99,,2012-10-17 11:08:00,
2012-10-17 03:13:00,25.1,14.6,0.00,West,280,9.0,-999.0,63,0.00,,,-99.99,,2012-10-17 11:13:00,
2012-10-17 03:18:00,25.4,15.1,0.00,NW,326,13.9,-999.0,64,0.00,,,-99.99,,2012-10-17 11:18:00,
2012-10-17 03:23:00,25.1,15.4,0.00,West,277,10.6,-999.0,66,0.00,,,-99.99,,2012-10-17 11:23:00,
2012-10-17 03:28:00,25.0,15.5,0.00,NW,308,16.5,-999.0,66,0.00,,,-99.99,,2012-10-17 11:28:00,
2012-10-17 03:33:00,25.2,15.8,0.00,North,351,14.0,-999.0,67,0.00,,,-99.99,,2012-10-17 11:33:00,
2012-10-17 03:38:00,25.3,15.6,0.00,NW,325,14.9,-999.0,66,0.00,,,-99.99,,2012-10-17 11:38:00,
2012-10-17 03:43:00,25.2,15.7,0.00,NW,308,9.4,-999.0,66,0.00,,,-99.99,,2012-10-17 11:43:00,
2012-10-17 03:48:00,25.3,15.7,0.00,NW,310,9.2,-999.0,66,0.00,,,-99.99,,2012-10-17 11:48:00,
2012-10-17 03:53:00,25.5,15.8,0.00,WNW,297,10.6,-999.0,66,0.00,,,-99.99,,2012-10-17 11:53:00,
2012-10-17 03:58:00,25.2,16.0,0.00,WNW,289,5.5,-999.0,67,0.00,,,-99.99,,2012-10-17 11:58:00,
2012-10-17 04:03:00,25.3,15.9,0.00,West,274,2.4,-999.0,67,0.00,,,-99.99,,2012-10-17 12:03:00,
2012-10-17 04:08:00,25.7,16.0,0.00,West,272,17.3,-999.0,66,0.00,,,-99.99,,2012-10-17 12:08:00,
2012-10-17 04:13:00,25.5,16.1,0.00,NW,306,10.6,-999.0,67,0.00,,,-99.99,,2012-10-17 12:13:00,
2012-10-17 04:18:00,25.7,16.9,0.00,West,259,8.2,-999.0,68,0.00,,,-99.99,,2012-10-17 12:18:00,
2012-10-17 04:23:00,25.7,16.8,0.00,North,353,5.0,-999.0,68,0.00,,,-99.99,,2012-10-17 12:23:00,
2012-10-17 04:28:00,25.8,17.2,0.00,WNW,287,6.1,-999.0,69,0.00,,,-99.99,,2012-10-17 12:28:00,
2012-10-17 04:33:00,25.7,16.7,0.00,West,263,10.9,-999.0,68,0.00,,,-99.99,,2012-10-17 12:33:00,
2012-10-17 04:38:00,25.6,17.3,0.00,WSW,250,6.5,-999.0,70,0.00,,,-99.99,,2012-10-17 12:38:00,
2012-10-17 04:43:00,25.6,17.3,0.00,NW,313,6.0,-999.0,70,0.00,,,-99.99,,2012-10-17 12:43:00,
2012-10-17 04:48:00,25.6,17.6,0.00,WSW,249,2.0,-999.0,71,0.00,,,-99.99,,2012-10-17 12:48:00,
2012-10-17 04:53:00,25.7,17.2,0.00,NW,317,1.6,-999.0,69,0.00,,,-99.99,,2012-10-17 12:53:00,
2012-10-17 04:58:00,25.7,17.4,0.00,NW,305,5.3,-999.0,70,0.00,,,-99.99,,2012-10-17 12:58:00,
2012-10-17 05:03:00,25.5,17.5,0.00,WSW,240,5.4,-999.0,71,0.00,,,-99.99,,2012-10-17 13:03:00,
2012-10-17 05:08:00,25.5,17.8,0.00,West,261,1.4,-999.0,72,0.00,,,-99.99,,2012-10-17 13:08:00,
2012-10-17 05:13:00,25.5,17.5,0.00,NNW,332,6.4,-999.0,71,0.00,,,-99.99,,2012-10-17 13:13:00,
2012-10-17 05:18:00,25.8,17.0,0.00,WNW,291,15.0,-999.0,68,0.00,,,-99.99,,2012-10-17 13:18:00,
2012-10-17 05:23:00,25.8,17.3,0.00,West,281,9.7,-999.0,70,0.00,,,-99.99,,2012-10-17 13:23:00,
2012-10-17 05:28:00,25.6,17.8,0.00,NNW,331,4.0,-999.0,71,0.00,,,-99.99,,2012-10-17 13:28:00,
2012-10-17 05:33:00,25.4,17.3,0.00,East,88,6.0,-999.0,70,0.00,,,-99.99,,2012-10-17 13:33:00,
2012-10-17 05:38:00,25.3,17.6,0.00,NW,324,3.4,-999.0,72,0.00,,,-99.99,,2012-10-17 13:38:00,
2012-10-17 05:43:00,25.4,18.0,0.00,West,281,2.8,-999.0,73,0.00,,,-99.99,,2012-10-17 13:43:00,
2012-10-17 05:48:00,25.4,18.2,0.00,South,184,5.2,-999.0,73,0.00,,,-99.99,,2012-10-17 13:48:00,
2012-10-17 05:53:00,25.7,17.8,0.00,West,273,12.2,-999.0,71,0.00,,,-99.99,,2012-10-17 13:53:00,
2012-10-17 05:58:00,25.7,17.5,0.00,West,270,16.1,-999.0,70,0.00,,,-99.99,,2012-10-17 13:58:00,
2012-10-17 06:03:00,25.7,17.6,0.00,West,281,9.2,-999.0,71,0.00,,,-99.99,,2012-10-17 14:03:00,
2012-10-17 06:08:00,25.6,17.9,0.00,WSW,242,12.8,-999.0,72,0.00,,,-99.99,,2012-10-17 14:08:00,
2012-10-17 06:13:00,25.6,17.6,0.00,SW,221,2.1,-999.0,71,0.00,,,-99.99,,2012-10-17 14:13:00,
2012-10-17 06:18:00,25.8,17.5,0.00,West,271,11.8,-999.0,70,0.00,,,-99.99,,2012-10-17 14:18:00,
2012-10-17 06:23:00,25.8,17.9,0.00,West,263,14.2,-999.0,71,0.00,,,-99.99,,2012-10-17 14:23:00,
2012-10-17 06:28:00,25.9,17.5,0.00,West,268,11.0,-999.0,70,0.00,,,-99.99,,2012-10-17 14:28:00,
2012-10-17 06:33:00,25.7,17.7,0.00,West,280,11.4,-999.0,71,0.00,,,-99.99,,2012-10-17 14:33:00,
2012-10-17 06:38:00,26.0,18.1,0.00,WNW,302,9.6,-999.0,71,0.00,,,-99.99,,2012-10-17 14:38:00,
2012-10-17 06:43:00,26.0,18.2,0.00,West,269,17.9,-999.0,72,0.00,,,-99.99,,2012-10-17 14:43:00,
2012-10-17 06:48:00,25.9,18.0,0.00,WNW,285,14.6,-999.0,71,0.00,,,-99.99,,2012-10-17 14:48:00,
2012-10-17 06:53:00,25.8,18.1,0.00,NW,320,9.4,-999.0,72,0.00,,,-99.99,,2012-10-17 14:53:00,
2012-10-17 06:58:00,25.6,18.3,0.00,WNW,300,6.1,-999.0,73,0.00,,,-99.99,,2012-10-17 14:58:00,
2012-10-17 07:04:00,25.6,17.7,0.00,WNW,290,10.5,-999.0,71,0.00,,,-99.99,,2012-10-17 15:04:00,
2012-10-17 07:09:00,25.5,18.1,0.00,West,275,15.4,-999.0,73,0.00,,,-99.99,,2012-10-17 15:09:00,
2012-10-17 07:14:00,25.1,18.2,0.00,West,279,2.2,-999.0,74,0.00,,,-99.99,,2012-10-17 15:14:00,
2012-10-17 07:19:00,25.1,18.3,0.00,West,277,1.6,-999.0,74,0.00,,,-99.99,,2012-10-17 15:19:00,
2012-10-17 07:24:00,25.1,18.1,0.00,WSW,240,9.0,-999.0,74,0.00,,,-99.99,,2012-10-17 15:24:00,
2012-10-17 07:29:00,25.0,18.4,0.00,ENE,60,1.0,-999.0,75,0.00,,,-99.99,,2012-10-17 15:29:00,
2012-10-17 07:34:00,25.2,18.4,0.00,West,275,13.4,-999.0,75,0.00,,,-99.99,,2012-10-17 15:34:00,
2012-10-17 07:39:00,25.2,18.3,0.00,WSW,243,11.0,-999.0,74,0.00,,,-99.99,,2012-10-17 15:39:00,
2012-10-17 07:46:00,25.3,18.4,0.00,WSW,255,6.6,-999.0,74,0.00,,,-99.99,,2012-10-17 15:46:00,
2012-10-17 07:51:00,25.4,18.4,0.00,SW,220,6.3,-999.0,74,0.00,,,-99.99,,2012-10-17 15:51:00,
2012-10-17 07:56:00,25.4,18.6,0.00,WSW,249,8.6,-999.0,75,0.00,,,-99.99,,2012-10-17 15:56:00,
2012-10-17 08:01:00,25.1,18.8,0.00,West,265,15.3,-999.0,76,0.00,,,-99.99,,2012-10-17 16:01:00,
2012-10-17 08:06:00,25.2,19.0,0.00,West,265,11.3,-999.0,77,0.00,,,-99.99,,2012-10-17 16:06:00,
2012-10-17 08:11:00,25.5,18.7,0.00,West,276,23.1,-999.0,75,0.00,,,-99.99,,2012-10-17 16:11:00,
2012-10-17 08:16:00,25.4,18.7,0.00,West,271,20.6,-999.0,75,0.00,,,-99.99,,2012-10-17 16:16:00,
2012-10-17 08:21:00,25.5,18.5,0.00,West,273,13.6,-999.0,74,0.00,,,-99.99,,2012-10-17 16:21:00,
2012-10-17 08:26:00,25.6,18.6,0.00,West,270,14.0,-999.0,74,0.00,,,-99.99,,2012-10-17 16:26:00,
2012-10-17 08:32:00,25.2,18.7,0.00,West,262,19.4,-999.0,76,0.00,,,-99.99,,2012-10-17 16:32:00,
2012-10-17 08:37:00,25.4,18.8,0.00,West,276,18.6,-999.0,75,0.00,,,-99.99,,2012-10-17 16:37:00,
2012-10-17 08:42:00,25.7,18.5,0.00,West,276,17.8,-999.0,73,0.00,,,-99.99,,2012-10-17 16:42:00,
2012-10-17 08:47:00,25.4,18.8,0.00,West,271,21.4,-999.0,75,0.00,,,-99.99,,2012-10-17 16:47:00,
2012-10-17 08:52:00,26.6,20.2,0.00,WNW,285,16.9,-999.0,76,0.00,,,-99.99,,2012-10-17 16:52:00,
2012-10-17 08:57:00,25.2,19.1,0.00,West,261,17.0,-999.0,77,0.00,,,-99.99,,2012-10-17 16:57:00,
2012-10-17 09:02:00,25.0,19.3,0.00,West,259,18.5,-999.0,78,0.00,,,-99.99,,2012-10-17 17:02:00,
2012-10-17 09:07:00,24.9,19.0,0.00,West,260,21.2,-999.0,78,0.00,,,-99.99,,2012-10-17 17:07:00,
2012-10-17 09:12:00,26.0,20.2,0.00,West,268,17.9,-999.0,78,0.00,,,-99.99,,2012-10-17 17:12:00,
2012-10-17 09:17:00,24.9,19.1,0.00,WSW,249,16.4,-999.0,78,0.00,,,-99.99,,2012-10-17 17:17:00,
2012-10-17 09:22:00,24.7,19.0,0.00,West,278,18.1,-999.0,78,0.00,,,-99.99,,2012-10-17 17:22:00,
2012-10-17 09:27:00,25.0,19.1,0.00,WSW,257,20.7,-999.0,77,0.00,,,-99.99,,2012-10-17 17:27:00,
2012-10-17 09:32:00,25.1,18.9,0.00,West,267,5.1,-999.0,77,0.00,,,-99.99,,2012-10-17 17:32:00,
2012-10-17 09:37:00,25.6,18.5,0.00,West,272,11.4,-999.0,74,0.00,,,-99.99,,2012-10-17 17:37:00,
2012-10-17 09:42:00,26.4,18.2,0.00,WNW,299,13.3,-999.0,71,0.00,,,-99.99,,2012-10-17 17:42:00,
2012-10-17 09:47:00,26.6,17.9,0.00,WSW,246,10.8,-999.0,69,0.00,,,-99.99,,2012-10-17 17:47:00,
2012-10-17 09:52:00,26.0,18.4,0.00,West,278,12.6,-999.0,72,0.00,,,-99.99,,2012-10-17 17:52:00,
2012-10-17 09:57:00,26.2,18.0,0.00,West,276,14.6,-999.0,70,0.00,,,-99.99,,2012-10-17 17:57:00,
2012-10-17 10:02:00,26.2,18.1,0.00,West,269,13.9,-999.0,70,0.00,,,-99.99,,2012-10-17 18:02:00,
2012-10-17 10:07:00,26.1,18.6,0.00,West,275,13.9,-999.0,72,0.00,,,-99.99,,2012-10-17 18:07:00,
2012-10-17 10:12:00,26.0,18.5,0.00,West,271,13.7,-999.0,73,0.00,,,-99.99,,2012-10-17 18:12:00,
2012-10-17 10:17:00,26.2,18.2,0.00,NW,310,12.2,-999.0,71,0.00,,,-99.99,,2012-10-17 18:17:00,
2012-10-17 10:22:00,26.5,18.5,0.00,West,259,11.4,-999.0,71,0.00,,,-99.99,,2012-10-17 18:22:00,
2012-10-17 10:27:00,26.2,18.4,0.00,West,269,18.8,-999.0,72,0.00,,,-99.99,,2012-10-17 18:27:00,
2012-10-17 10:33:00,26.1,18.4,0.00,West,272,16.2,-999.0,72,0.00,,,-99.99,,2012-10-17 18:33:00,
2012-10-17 10:38:00,26.6,18.7,0.00,WNW,283,13.8,-999.0,71,0.00,,,-99.99,,2012-10-17 18:38:00,
2012-10-17 10:43:00,26.4,18.8,0.00,WNW,291,13.3,-999.0,72,0.00,,,-99.99,,2012-10-17 18:43:00,
2012-10-17 10:48:00,26.2,18.8,0.00,West,266,17.0,-999.0,73,0.00,,,-99.99,,2012-10-17 18:48:00,
2012-10-17 10:53:00,26.6,18.0,0.00,WSW,255,16.7,-999.0,69,0.00,,,-99.99,,2012-10-17 18:53:00,
2012-10-17 10:58:00,26.5,18.4,0.00,WNW,285,19.5,-999.0,71,0.00,,,-99.99,,2012-10-17 18:58:00,
2012-10-17 11:03:00,26.3,19.2,0.00,West,281,6.9,-999.0,74,0.00,,,-99.99,,2012-10-17 19:03:00,
2012-10-17 11:08:00,26.4,19.0,0.00,WNW,286,13.6,-999.0,73,0.00,,,-99.99,,2012-10-17 19:08:00,
2012-10-17 11:13:00,26.1,19.3,0.00,West,269,9.2,-999.0,75,0.00,,,-99.99,,2012-10-17 19:13:00,
2012-10-17 11:19:00,26.4,18.3,0.00,WSW,256,12.1,-999.0,71,0.00,,,-99.99,,2012-10-17 19:19:00,
2012-10-17 11:24:00,26.7,18.2,0.00,WNW,283,13.0,-999.0,70,0.00,,,-99.99,,2012-10-17 19:24:00,
2012-10-17 11:29:00,26.8,17.7,0.00,WSW,240,4.3,-999.0,68,0.00,,,-99.99,,2012-10-17 19:29:00,
2012-10-17 11:34:00,26.9,18.1,0.00,NW,314,5.6,-999.0,69,0.00,,,-99.99,,2012-10-17 19:34:00,
2012-10-17 11:39:00,27.0,18.0,0.00,WNW,303,11.9,-999.0,68,0.00,,,-99.99,,2012-10-17 19:39:00,
2012-10-17 11:44:00,27.3,17.6,0.00,WSW,250,14.3,-999.0,66,0.00,,,-99.99,,2012-10-17 19:44:00,
2012-10-17 11:49:00,27.0,18.7,0.00,WSW,240,13.8,-999.0,70,0.00,,,-99.99,,2012-10-17 19:49:00,
2012-10-17 11:54:00,27.2,18.7,0.00,West,281,13.5,-999.0,70,0.00,,,-99.99,,2012-10-17 19:54:00,
2012-10-17 12:00:00,27.3,19.3,0.00,WSW,251,9.6,-999.0,71,0.00,,,-99.99,,2012-10-17 20:00:00,
2012-10-17 12:04:00,27.2,19.4,0.00,West,276,10.4,-999.0,72,0.00,,,-99.99,,2012-10-17 20:04:00,
2012-10-17 12:10:00,27.5,19.6,0.00,WSW,253,11.8,-999.0,71,0.00,,,-99.99,,2012-10-17 20:10:00,
2012-10-17 12:15:00,27.5,19.8,0.00,WSW,257,12.9,-999.0,72,0.00,,,-99.99,,2012-10-17 20:15:00,
2012-10-17 12:20:00,27.4,19.5,0.00,WNW,299,12.1,-999.0,71,0.00,,,-99.99,,2012-10-17 20:20:00,
2012-10-17 12:25:00,27.8,20.1,0.00,West,278,6.7,-999.0,72,0.00,,,-99.99,,2012-10-17 20:25:00,
2012-10-17 12:30:00,27.9,19.2,0.00,West,264,18.4,-999.0,69,0.00,,,-99.99,,2012-10-17 20:30:00,
2012-10-17 12:35:00,27.8,18.7,0.00,West,261,15.6,-999.0,68,0.00,,,-99.99,,2012-10-17 20:35:00,
2012-10-17 12:40:00,27.8,18.2,0.00,West,271,19.3,-999.0,67,0.00,,,-99.99,,2012-10-17 20:40:00,
2012-10-17 12:45:00,27.7,18.5,0.00,NW,323,7.2,-999.0,68,0.00,,,-99.99,,2012-10-17 20:45:00,
2012-10-17 12:51:00,28.0,19.2,0.00,WSW,252,11.4,-999.0,69,0.00,,,-99.99,,2012-10-17 20:51:00,
2012-10-17 12:56:00,27.8,19.6,0.00,West,262,17.2,-999.0,70,0.00,,,-99.99,,2012-10-17 20:56:00,
2012-10-17 13:01:00,28.1,19.4,0.00,West,277,15.8,-999.0,69,0.00,,,-99.99,,2012-10-17 21:01:00,
2012-10-17 13:06:00,28.0,19.9,0.00,SW,235,7.8,-999.0,71,0.00,,,-99.99,,2012-10-17 21:06:00,
2012-10-17 13:11:00,28.3,19.4,0.00,WSW,257,10.2,-999.0,69,0.00,,,-99.99,,2012-10-17 21:11:00,
2012-10-17 13:16:00,28.4,19.4,0.00,WSW,256,15.4,-999.0,68,0.00,,,-99.99,,2012-10-17 21:16:00,
2012-10-17 13:22:00,28.3,19.7,0.00,WSW,245,17.9,-999.0,69,0.00,,,-99.99,,2012-10-17 21:22:00,
2012-10-17 13:27:00,28.7,19.9,0.00,WSW,248,12.1,-999.0,69,0.00,,,-99.99,,2012-10-17 21:27:00,
2012-10-17 13:32:00,28.7,19.7,0.00,West,259,9.6,-999.0,68,0.00,,,-99.99,,2012-10-17 21:32:00,
2012-10-17 13:37:00,28.7,19.6,0.00,WSW,258,8.8,-999.0,68,0.00,,,-99.99,,2012-10-17 21:37:00,
2012-10-17 13:42:00,28.9,19.7,0.00,WNW,285,16.8,-999.0,68,0.00,,,-99.99,,2012-10-17 21:42:00,
2012-10-17 13:47:00,29.0,19.2,0.00,West,266,16.9,-999.0,66,0.00,,,-99.99,,2012-10-17 21:47:00,
2012-10-17 13:52:00,28.6,19.0,0.00,West,275,17.6,-999.0,67,0.00,,,-99.99,,2012-10-17 21:52:00,
2012-10-17 13:57:00,28.6,19.0,0.00,West,260,17.6,-999.0,67,0.00,,,-99.99,,2012-10-17 21:57:00,
2012-10-17 14:02:00,28.4,18.8,0.00,West,270,18.9,-999.0,66,0.00,,,-99.99,,2012-10-17 22:02:00,
2012-10-17 14:07:00,28.9,19.4,0.00,WSW,250,11.8,-999.0,67,0.00,,,-99.99,,2012-10-17 22:07:00,
2012-10-17 14:13:00,28.9,19.8,0.00,West,260,11.4,-999.0,68,0.00,,,-99.99,,2012-10-17 22:13:00,
2012-10-17 14:18:00,28.9,19.5,0.00,WNW,284,15.3,-999.0,67,0.00,,,-99.99,,2012-10-17 22:18:00,
2012-10-17 14:23:00,28.7,19.6,0.00,West,263,20.5,-999.0,68,0.00,,,-99.99,,2012-10-17 22:23:00,
2012-10-17 14:28:00,28.7,19.4,0.00,WNW,287,18.2,-999.0,67,0.00,,,-99.99,,2012-10-17 22:28:00,
2012-10-17 14:33:00,28.9,19.2,0.00,West,279,19.3,-999.0,67,0.00,,,-99.99,,2012-10-17 22:33:00,
2012-10-17 14:38:00,28.7,19.6,0.00,WSW,245,17.0,-999.0,68,0.00,,,-99.99,,2012-10-17 22:38:00,
2012-10-17 14:43:00,28.7,19.2,0.00,WNW,293,14.8,-999.0,67,0.00,,,-99.99,,2012-10-17 22:43:00,
2012-10-17 14:48:00,28.8,19.4,0.00,West,269,10.2,-999.0,67,0.00,,,-99.99,,2012-10-17 22:48:00,
2012-10-17 14:53:00,28.8,19.3,0.00,West,267,17.8,-999.0,67,0.00,,,-99.99,,2012-10-17 22:53:00,
2012-10-17 14:58:00,29.4,19.3,0.00,WSW,256,10.7,-999.0,65,0.00,,,-99.99,,2012-10-17 22:58:00,
2012-10-17 15:03:00,29.1,19.1,0.00,NW,316,4.4,-999.0,66,0.00,,,-99.99,,2012-10-17 23:03:00,
2012-10-17 15:08:00,29.3,19.5,0.00,West,271,16.8,-999.0,66,0.00,,,-99.99,,2012-10-17 23:08:00,
2012-10-17 15:13:00,29.2,19.6,0.00,NW,313,9.2,-999.0,67,0.00,,,-99.99,,2012-10-17 23:13:00,
2012-10-17 15:18:00,29.3,20.1,0.00,WNW,284,10.7,-999.0,68,0.00,,,-99.99,,2012-10-17 23:18:00,
2012-10-17 15:23:00,29.4,19.3,0.00,WNW,285,12.7,-999.0,65,0.00,,,-99.99,,2012-10-17 23:23:00,
2012-10-17 15:28:00,29.3,19.6,0.00,West,271,11.9,-999.0,66,0.00,,,-99.99,,2012-10-17 23:28:00,
2012-10-17 15:33:00,28.9,19.2,0.00,WSW,256,13.5,-999.0,66,0.00,,,-99.99,,2012-10-17 23:33:00,
2012-10-17 15:38:00,28.9,19.5,0.00,West,271,13.8,-999.0,67,0.00,,,-99.99,,2012-10-17 23:38:00,
2012-10-17 15:43:00,29.2,19.4,0.00,West,274,16.1,-999.0,66,0.00,,,-99.99,,2012-10-17 23:43:00,
2012-10-17 15:48:00,29.3,19.5,0.00,WNW,283,14.8,-999.0,66,0.00,,,-99.99,,2012-10-17 23:48:00,
2012-10-17 15:53:00,29.2,19.3,0.00,WSW,258,12.3,-999.0,66,0.00,,,-99.99,,2012-10-17 23:53:00,
2012-10-17 16:00:00,28.9,19.2,0.00,West,274,12.1,-999.0,66,0.00,,,-99.99,,2012-10-18 00:00:00,
2012-10-17 16:05:00,29.0,19.4,0.00,West,276,14.9,-999.0,66,0.00,,,-99.99,,2012-10-18 00:05:00,
2012-10-17 16:10:00,29.1,19.5,0.00,West,267,10.9,-999.0,67,0.00,,,-99.99,,2012-10-18 00:10:00,
2012-10-17 16:15:00,29.1,19.6,0.00,West,273,12.2,-999.0,67,0.00,,,-99.99,,2012-10-18 00:15:00,
2012-10-17 16:20:00,29.1,20.2,0.00,WSW,249,11.1,-999.0,68,0.00,,,-99.99,,2012-10-18 00:20:00,
2012-10-17 16:25:00,29.2,20.1,0.00,West,272,14.5,-999.0,68,0.00,,,-99.99,,2012-10-18 00:25:00,
2012-10-17 16:30:00,29.3,20.2,0.00,West,280,18.6,-999.0,68,0.00,,,-99.99,,2012-10-18 00:30:00,
2012-10-17 16:35:00,29.1,20.3,0.00,West,267,8.2,-999.0,69,0.00,,,-99.99,,2012-10-18 00:35:00,
2012-10-17 16:40:00,29.4,20.4,0.00,WNW,293,7.8,-999.0,68,0.00,,,-99.99,,2012-10-18 00:40:00,
2012-10-17 16:45:00,29.3,20.2,0.00,West,269,15.3,-999.0,68,0.00,,,-99.99,,2012-10-18 00:45:00,
2012-10-17 16:51:00,29.1,20.0,0.00,West,276,12.1,-999.0,68,0.00,,,-99.99,,2012-10-18 00:51:00,
2012-10-17 16:58:00,29.2,20.2,0.00,West,259,11.3,-999.0,68,0.00,,,-99.99,,2012-10-18 00:58:00,
2012-10-17 17:03:00,28.8,19.6,0.00,West,276,18.1,-999.0,68,0.00,,,-99.99,,2012-10-18 01:03:00,
2012-10-17 17:08:00,28.9,20.0,0.00,NW,324,12.1,-999.0,69,0.00,,,-99.99,,2012-10-18 01:08:00,
2012-10-17 17:13:00,28.8,20.2,0.00,NW,315,7.6,-999.0,69,0.00,,,-99.99,,2012-10-18 01:13:00,
2012-10-17 17:18:00,28.8,19.9,0.00,West,259,18.0,-999.0,69,0.00,,,-99.99,,2012-10-18 01:18:00,
2012-10-17 17:23:00,28.7,20.1,0.00,West,273,17.1,-999.0,69,0.00,,,-99.99,,2012-10-18 01:23:00,
2012-10-17 17:28:00,28.8,20.4,0.00,West,280,7.2,-999.0,70,0.00,,,-99.99,,2012-10-18 01:28:00,
2012-10-17 17:33:00,28.6,20.2,0.00,WSW,254,14.1,-999.0,70,0.00,,,-99.99,,2012-10-18 01:33:00,
2012-10-17 17:38:00,28.6,20.5,0.00,West,280,9.8,-999.0,71,0.00,,,-99.99,,2012-10-18 01:38:00,
2012-10-17 17:43:00,28.5,20.3,0.00,West,262,12.1,-999.0,71,0.00,,,-99.99,,2012-10-18 01:43:00,
2012-10-17 17:48:00,28.3,20.5,0.00,NW,318,15.8,-999.0,72,0.00,,,-99.99,,2012-10-18 01:48:00,
2012-10-17 17:53:00,28.2,20.7,0.00,WNW,287,11.4,-999.0,73,0.00,,,-99.99,,2012-10-18 01:53:00,
2012-10-17 17:58:00,28.1,20.5,0.00,WSW,257,10.2,-999.0,72,0.00,,,-99.99,,2012-10-18 01:58:00,
2012-10-17 18:04:00,28.0,20.2,0.00,West,265,13.1,-999.0,72,0.00,,,-99.99,,2012-10-18 02:04:00,
2012-10-17 18:09:00,27.8,20.1,0.00,WSW,242,11.5,-999.0,72,0.00,,,-99.99,,2012-10-18 02:09:00,
2012-10-17 18:15:00,27.5,19.9,0.00,WSW,255,11.1,-999.0,73,0.00,,,-99.99,,2012-10-18 02:15:00,
2012-10-17 18:20:00,27.4,19.9,0.00,West,277,10.9,-999.0,73,0.00,,,-99.99,,2012-10-18 02:20:00,
2012-10-17 18:25:00,27.5,20.1,0.00,WNW,298,10.3,-999.0,73,0.00,,,-99.99,,2012-10-18 02:25:00,
2012-10-17 18:30:00,27.3,20.2,0.00,WNW,295,8.9,-999.0,74,0.00,,,-99.99,,2012-10-18 02:30:00,
2012-10-17 18:35:00,27.3,19.9,0.00,West,268,17.0,-999.0,73,0.00,,,-99.99,,2012-10-18 02:35:00,
2012-10-17 18:40:00,27.2,19.8,0.00,WNW,284,16.6,-999.0,73,0.00,,,-99.99,,2012-10-18 02:40:00,
2012-10-17 18:45:00,27.3,20.0,0.00,West,276,13.0,-999.0,73,0.00,,,-99.99,,2012-10-18 02:45:00,
2012-10-17 18:50:00,26.9,19.9,0.00,West,274,12.6,-999.0,74,0.00,,,-99.99,,2012-10-18 02:50:00,
2012-10-17 18:55:00,27.0,19.9,0.00,West,277,18.1,-999.0,74,0.00,,,-99.99,,2012-10-18 02:55:00,
2012-10-17 19:00:00,27.3,19.9,0.00,WSW,258,15.4,-999.0,73,0.00,,,-99.99,,2012-10-18 03:00:00,
2012-10-17 19:05:00,27.0,20.0,0.00,West,280,19.4,-999.0,74,0.00,,,-99.99,,2012-10-18 03:05:00,
2012-10-17 19:10:00,27.0,19.9,0.00,WNW,300,17.9,-999.0,74,0.00,,,-99.99,,2012-10-18 03:10:00,
2012-10-17 19:15:00,27.0,19.7,0.00,WNW,288,9.6,-999.0,73,0.00,,,-99.99,,2012-10-18 03:15:00,
2012-10-17 19:20:00,26.9,19.4,0.00,West,278,19.7,-999.0,73,0.00,,,-99.99,,2012-10-18 03:20:00,
2012-10-17 19:25:00,26.7,19.5,0.00,West,281,17.2,-999.0,73,0.00,,,-99.99,,2012-10-18 03:25:00,
2012-10-17 19:31:00,26.9,19.6,0.00,WSW,243,17.9,-999.0,73,0.00,,,-99.99,,2012-10-18 03:31:00,
2012-10-17 19:36:00,26.8,19.3,0.00,West,265,15.3,-999.0,73,0.00,,,-99.99,,2012-10-18 03:36:00,
2012-10-17 19:41:00,26.8,19.6,0.00,West,278,11.8,-999.0,73,0.00,,,-99.99,,2012-10-18 03:41:00,
2012-10-17 19:46:00,26.5,19.7,0.00,West,278,15.7,-999.0,75,0.00,,,-99.99,,2012-10-18 03:46:00,
2012-10-17 19:51:00,26.7,19.8,0.00,West,262,15.4,-999.0,75,0.00,,,-99.99,,2012-10-18 03:51:00,
2012-10-17 19:56:00,26.7,19.7,0.00,West,261,12.9,-999.0,74,0.00,,,-99.99,,2012-10-18 03:56:00,
2012-10-17 20:01:00,27.8,20.9,0.00,West,267,12.0,-999.0,75,0.00,,,-99.99,,2012-10-18 04:01:00,
2012-10-17 20:02:00,26.6,19.5,0.00,West,276,17.8,-999.0,74,0.00,,,-99.99,,2012-10-18 04:02:00,
2012-10-17 20:03:00,26.6,19.5,0.00,WSW,252,10.4,-999.0,74,0.00,,,-99.99,,2012-10-18 04:03:00,
2012-10-17 20:08:00,26.5,19.1,0.00,West,259,16.4,-999.0,73,0.00,,,-99.99,,2012-10-18 04:08:00,
2012-10-17 20:13:00,26.4,19.2,0.00,WNW,283,13.2,-999.0,73,0.00,,,-99.99,,2012-10-18 04:13:00,
2012-10-17 20:18:00,26.4,19.3,0.00,SW,235,5.5,-999.0,74,0.00,,,-99.99,,2012-10-18 04:18:00,
2012-10-17 20:23:00,26.9,19.3,0.00,WSW,242,7.8,-999.0,73,0.00,,,-99.99,,2012-10-18 04:23:00,
2012-10-17 20:28:00,26.5,19.0,0.00,West,270,13.8,-999.0,73,0.00,,,-99.99,,2012-10-18 04:28:00,
2012-10-17 20:33:00,26.5,18.8,0.00,West,261,14.9,-999.0,72,0.00,,,-99.99,,2012-10-18 04:33:00,
2012-10-17 20:38:00,26.5,18.4,0.00,WNW,286,12.0,-999.0,71,0.00,,,-99.99,,2012-10-18 04:38:00,
2012-10-17 20:43:00,26.6,18.7,0.00,West,269,10.7,-999.0,72,0.00,,,-99.99,,2012-10-18 04:43:00,
2012-10-17 20:48:00,26.6,18.6,0.00,WNW,291,17.2,-999.0,71,0.00,,,-99.99,,2012-10-18 04:48:00,
2012-10-17 20:53:00,26.9,18.1,0.00,West,269,15.9,-999.0,69,0.00,,,-99.99,,2012-10-18 04:53:00,
2012-10-17 20:58:00,26.7,18.5,0.00,West,277,12.7,-999.0,70,0.00,,,-99.99,,2012-10-18 04:58:00,
2012-10-17 21:03:00,26.5,18.1,0.00,WNW,287,14.7,-999.0,70,0.00,,,-99.99,,2012-10-18 05:03:00,
2012-10-17 21:08:00,26.6,18.0,0.00,West,266,11.1,-999.0,69,0.00,,,-99.99,,2012-10-18 05:08:00,
2012-10-17 21:13:00,26.7,18.3,0.00,WSW,256,11.5,-999.0,70,0.00,,,-99.99,,2012-10-18 05:13:00,
2012-10-17 21:18:00,26.5,18.4,0.00,West,260,10.9,-999.0,71,0.00,,,-99.99,,2012-10-18 05:18:00,
2012-10-17 21:23:00,26.3,18.2,0.00,West,280,2.9,-999.0,71,0.00,,,-99.99,,2012-10-18 05:23:00,
2012-10-17 21:28:00,26.7,18.0,0.00,West,270,12.4,-999.0,69,0.00,,,-99.99,,2012-10-18 05:28:00,
2012-10-17 21:34:00,26.4,18.0,0.00,WSW,250,6.7,-999.0,70,0.00,,,-99.99,,2012-10-18 05:34:00,
2012-10-17 21:39:00,26.5,18.3,0.00,WSW,245,6.8,-999.0,71,0.00,,,-99.99,,2012-10-18 05:39:00,
2012-10-17 21:44:00,26.3,18.3,0.00,West,262,12.9,-999.0,71,0.00,,,-99.99,,2012-10-18 05:44:00,
2012-10-17 21:49:00,26.6,18.1,0.00,West,266,13.1,-999.0,70,0.00,,,-99.99,,2012-10-18 05:49:00,
2012-10-17 21:54:00,26.7,18.2,0.00,NNW,329,8.9,-999.0,70,0.00,,,-99.99,,2012-10-18 05:54:00,
2012-10-17 22:00:00,26.4,18.4,0.00,WNW,300,14.8,-999.0,71,0.00,,,-99.99,,2012-10-18 06:00:00,
2012-10-17 22:04:00,25.9,18.6,0.00,West,268,8.1,-999.0,73,0.00,,,-99.99,,2012-10-18 06:04:00,
2012-10-17 22:09:00,26.3,18.0,0.00,WSW,257,15.9,-999.0,70,0.00,,,-99.99,,2012-10-18 06:09:00,
2012-10-17 22:14:00,26.2,18.1,0.00,WNW,282,11.6,-999.0,70,0.00,,,-99.99,,2012-10-18 06:14:00,
2012-10-17 22:19:00,26.2,18.1,0.00,West,267,16.6,-999.0,70,0.00,,,-99.99,,2012-10-18 06:19:00,
2012-10-17 22:24:00,26.3,17.7,0.00,WNW,284,8.8,-999.0,69,0.00,,,-99.99,,2012-10-18 06:24:00,
2012-10-17 22:29:00,26.3,17.1,0.00,WNW,292,11.9,-999.0,67,0.00,,,-99.99,,2012-10-18 06:29:00,
2012-10-17 22:34:00,26.3,17.4,0.00,West,269,10.8,-999.0,68,0.00,,,-99.99,,2012-10-18 06:34:00,
2012-10-17 22:39:00,26.1,17.5,0.00,West,260,15.6,-999.0,69,0.00,,,-99.99,,2012-10-18 06:39:00,
2012-10-17 22:44:00,26.2,16.8,0.00,West,270,11.9,-999.0,67,0.00,,,-99.99,,2012-10-18 06:44:00,
2012-10-17 22:49:00,26.4,17.1,0.00,West,271,13.5,-999.0,67,0.00,,,-99.99,,2012-10-18 06:49:00,
2012-10-17 22:54:00,26.1,17.2,0.00,WNW,289,12.9,-999.0,68,0.00,,,-99.99,,2012-10-18 06:54:00,
2012-10-17 23:00:00,25.9,17.9,0.00,West,266,7.8,-999.0,71,0.00,,,-99.99,,2012-10-18 07:00:00,
2012-10-17 23:04:00,25.8,17.7,0.00,West,261,10.1,-999.0,71,0.00,,,-99.99,,2012-10-18 07:04:00,
2012-10-17 23:09:00,25.6,18.1,0.00,West,279,4.3,-999.0,72,0.00,,,-99.99,,2012-10-18 07:09:00,
2012-10-17 23:14:00,26.2,17.1,0.00,SW,229,14.9,-999.0,68,0.00,,,-99.99,,2012-10-18 07:14:00,
2012-10-17 23:19:00,26.2,17.4,0.00,WSW,255,6.4,-999.0,68,0.00,,,-99.99,,2012-10-18 07:19:00,
2012-10-17 23:24:00,25.4,17.8,0.00,West,279,8.7,-999.0,72,0.00,,,-99.99,,2012-10-18 07:24:00,
2012-10-17 23:29:00,26.6,16.8,0.00,WNW,295,13.4,-999.0,66,0.00,,,-99.99,,2012-10-18 07:29:00,
2012-10-17 23:34:00,26.0,17.4,0.00,WSW,242,11.9,-999.0,69,0.00,,,-99.99,,2012-10-18 07:34:00,
2012-10-17 23:39:00,26.4,16.8,0.00,West,271,10.6,-999.0,66,0.00,,,-99.99,,2012-10-18 07:39:00,
2012-10-17 23:44:00,26.7,16.9,0.00,WNW,294,15.7,-999.0,66,0.00,,,-99.99,,2012-10-18 07:44:00,
2012-10-17 23:49:00,26.4,17.4,0.00,West,276,14.4,-999.0,68,0.00,,,-99.99,,2012-10-18 07:49:00,
2012-10-17 23:54:00,25.8,17.8,0.00,West,270,6.4,-999.0,71,0.00,,,-99.99,,2012-10-18 07:54:00,